Time;durP1;ratioP1;P1;durP2;ratioP2;P2;SDS_P1;SDS_P2;PMS_P1;PMS_P2;Temp;Humidity;BMP_temperature;BMP_pressure;BME280_temperature;BME280_humidity;BME280_pressure;Samples;Min_cycle;Max_cycle;Signal;HPM_P1;HPM_P2
2022/02/10 00:03:45;;;;;;;4.27;2.43;;;;;;;3.82;78.66;97025.88;5018181;28;20279;-71
2022/02/10 00:06:47;;;;;;;2.63;1.73;;;;;;;3.82;78.88;97025.88;5019424;28;20214;-71
2022/02/10 00:15:15;;;;;;;3.77;2.20;;;;;;;3.91;78.88;97021.75;5017938;28;20213;-71
2022/02/10 00:17:45;;;;;;;9.17;2.47;;;;;;;3.78;79.09;97016.63;5018298;28;20204;-71
2022/02/10 00:20:22;;;;;;;3.27;1.97;;;;;;;3.79;78.45;97013.09;5018754;28;20222;-71
2022/02/10 00:34:22;;;;;;;5.13;2.30;;;;;;;3.41;79.34;97010.88;5016958;28;20477;-71
2022/02/10 00:36:58;;;;;;;3.50;1.70;;;;;;;3.29;80.14;97009.22;5018146;28;20213;-71
2022/02/10 00:39:46;;;;;;;5.53;2.70;;;;;;;3.43;80.09;97020.25;5017998;28;20713;-71
2022/02/10 00:42:13;;;;;;;3.90;1.97;;;;;;;3.35;79.80;97011.38;5017931;28;20847;-71
2022/02/10 00:44:39;;;;;;;3.27;2.27;;;;;;;3.32;79.90;97011.56;5018832;28;20202;-72
2022/02/10 00:47:07;;;;;;;2.27;1.73;;;;;;;3.41;79.75;97014.34;5018752;28;20210;-71
2022/02/10 00:49:35;;;;;;;3.57;1.83;;;;;;;3.35;79.43;97011.38;5018457;28;20237;-71
2022/02/10 00:52:04;;;;;;;3.50;2.00;;;;;;;3.23;80.35;97007.06;5018310;28;20206;-71
2022/02/10 00:54:31;;;;;;;6.90;2.67;;;;;;;3.08;80.40;97011.63;5017476;28;20224;-71
2022/02/10 00:56:58;;;;;;;4.63;2.37;;;;;;;3.09;80.03;97009.84;5018321;28;20210;-71
2022/02/10 00:59:35;;;;;;;4.07;1.23;;;;;;;3.00;80.64;97007.91;5017214;28;20232;-71
2022/02/10 01:10:33;;;;;;;3.77;2.13;;;;;;;2.96;81.18;97001.28;5017779;28;20255;-71
2022/02/10 01:13:07;;;;;;;3.63;1.87;;;;;;;2.96;81.04;97003.88;5017525;28;20208;-71
2022/02/10 01:29:36;;;;;;;1.77;1.33;;;;;;;3.11;80.72;97003.59;5017901;28;20232;-71
2022/02/10 01:32:03;;;;;;;4.97;1.93;;;;;;;3.27;80.13;96992.84;5017904;28;20209;-71
2022/02/10 01:34:31;;;;;;;1.97;1.30;;;;;;;3.35;79.85;96993.94;5017051;28;20202;-71
2022/02/10 01:36:59;;;;;;;5.53;1.83;;;;;;;3.36;80.31;96994.78;5017956;28;20310;-71
2022/02/10 01:39:31;;;;;;;4.40;2.10;;;;;;;3.24;80.34;96987.88;5017616;28;20279;-71
2022/02/10 01:58:37;;;;;;;4.17;1.90;;;;;;;3.12;80.52;96983.59;5017044;28;20253;-71
2022/02/10 02:03:50;;;;;;;3.47;1.73;;;;;;;3.16;80.07;96977.22;5016589;28;20236;-71
2022/02/10 02:06:23;;;;;;;2.57;2.07;;;;;;;3.11;80.81;96966.31;5017075;28;20213;-71
2022/02/10 02:08:51;;;;;;;3.03;2.00;;;;;;;3.15;81.39;96960.75;5016805;28;20253;-71
2022/02/10 02:11:17;;;;;;;32.70;2.20;;;;;;;2.76;80.72;96960.28;5017009;28;20213;-72
2022/02/10 02:13:44;;;;;;;5.80;2.37;;;;;;;2.76;80.63;96956.84;5016521;28;20205;-71
2022/02/10 02:16:10;;;;;;;5.47;1.90;;;;;;;2.85;80.95;96953.56;5017448;28;20208;-72
2022/02/10 02:18:37;;;;;;;3.93;2.53;;;;;;;2.77;80.81;96956.72;5016941;28;20597;-71
2022/02/10 02:21:03;;;;;;;16.83;1.97;;;;;;;2.73;80.98;96947.50;5016907;28;20209;-71
2022/02/10 02:23:31;;;;;;;2.70;2.30;;;;;;;2.80;81.31;96946.13;5016677;28;20235;-71
2022/02/10 02:26:04;;;;;;;4.73;2.43;;;;;;;2.86;80.76;96953.44;5013507;28;20926;-71
2022/02/10 02:28:35;;;;;;;3.03;1.70;;;;;;;2.72;81.34;96938.00;5017168;28;20219;-71
2022/02/10 02:31:05;;;;;;;1.73;1.40;;;;;;;2.39;82.47;96947.44;5017120;28;20260;-71
2022/02/10 02:39:47;;;;;;;2.80;1.53;;;;;;;2.34;83.37;96943.53;4991920;28;20600;-71
2022/02/10 03:06:59;;;;;;;1.83;1.50;;;;;;;2.52;82.84;96910.06;4991326;28;20291;-72
2022/02/10 03:09:27;;;;;;;2.63;2.03;;;;;;;2.59;82.57;96915.63;4991108;28;20604;-71
2022/02/10 03:11:56;;;;;;;6.03;1.73;;;;;;;2.76;83.45;96910.00;4990726;28;20210;-72
2022/02/10 03:14:27;;;;;;;3.37;1.30;;;;;;;2.63;83.35;96907.47;4990809;28;20241;-71
2022/02/10 03:19:57;;;;;;;3.37;1.80;;;;;;;2.71;83.63;96905.16;4980404;27;20280;-72
2022/02/10 03:22:40;;;;;;;2.07;1.93;;;;;;;2.74;83.04;96907.53;4990624;28;20202;-72
2022/02/10 04:06:51;;;;;;;10.50;4.73;;;;;;;3.25;82.00;96901.00;4970740;28;20249;-72
2022/02/10 04:09:46;;;;;;;8.80;4.57;;;;;;;3.21;81.70;96900.41;4977541;28;20249;-72
2022/02/10 04:12:41;;;;;;;7.57;2.77;;;;;;;3.28;81.68;96906.78;4976844;28;20620;-72
2022/02/10 04:15:18;;;;;;;3.73;2.13;;;;;;;3.27;82.16;96909.50;4977125;28;20240;-71
2022/02/10 04:20:46;;;;;;;2.50;1.40;;;;;;;3.25;81.98;96899.22;4977350;28;20264;-71
2022/02/10 04:23:24;;;;;;;4.90;2.50;;;;;;;3.23;82.77;96910.69;4976872;28;20212;-71
2022/02/10 04:26:03;;;;;;;3.73;1.70;;;;;;;3.06;82.69;96905.94;4974144;28;20206;-71
2022/02/10 04:28:44;;;;;;;6.87;2.03;;;;;;;3.26;82.11;96900.03;4977132;28;20290;-72
2022/02/10 04:31:55;;;;;;;2.97;1.93;;;;;;;3.27;81.59;96902.56;4977149;28;20302;-71
2022/02/10 04:53:05;;;;;;;8.60;4.77;;;;;;;3.35;81.05;96901.97;4954394;28;20269;-71
2022/02/10 04:54:30;;;;;;;4.13;2.93;;;;;;;3.22;81.20;96907.28;4975863;28;20289;-71
2022/02/10 04:57:08;;;;;;;1.40;1.30;;;;;;;3.14;81.61;96903.59;4976124;28;20376;-72
2022/02/10 04:59:49;;;;;;;5.37;2.43;;;;;;;3.28;81.16;96903.38;4976330;28;21069;-71
2022/02/10 05:05:39;;;;;;;15.77;5.50;;;;;;;3.41;80.90;96898.88;4976730;28;21203;-71
2022/02/10 05:22:27;;;;;;;3.23;1.70;;;;;;;3.35;81.55;96887.16;5011603;28;20271;-71
2022/02/10 05:33:24;;;;;;;4.73;2.53;;;;;;;3.11;81.99;96886.41;5053114;28;20272;-71
2022/02/10 05:35:55;;;;;;;2.10;1.73;;;;;;;3.27;82.07;96893.88;5053803;28;20258;-72
2022/02/10 05:38:27;;;;;;;3.50;1.80;;;;;;;3.16;82.06;96888.69;5053318;28;20224;-71
2022/02/10 05:43:53;;;;;;;2.80;2.37;;;;;;;3.06;81.77;96898.13;5052848;28;20212;-71
2022/02/10 05:46:37;;;;;;;5.10;2.07;;;;;;;3.05;81.65;96901.69;5053802;28;20240;-71
2022/02/10 05:49:27;;;;;;;2.37;1.97;;;;;;;2.90;82.08;96897.63;5053481;28;20279;-71
2022/02/10 05:52:31;;;;;;;1.57;1.43;;;;;;;2.96;82.84;96909.38;5053827;28;20197;-71
2022/02/10 05:55:10;;;;;;;2.50;1.57;;;;;;;2.60;83.48;96906.88;5053256;28;20246;-71
2022/02/10 05:57:47;;;;;;;2.60;1.60;;;;;;;2.92;82.98;96906.16;5053480;28;20748;-71
2022/02/10 06:50:16;;;;;;;2.47;1.70;;;;;;;3.92;82.17;96914.75;5038471;28;20295;-71
2022/02/10 06:52:53;;;;;;;7.67;2.83;;;;;;;4.01;82.37;96908.81;5037609;28;20650;-72
2022/02/10 06:55:37;;;;;;;10.40;2.17;;;;;;;3.87;82.83;96911.66;5039178;28;20631;-72
2022/02/10 07:06:36;;;;;;;6.90;2.33;;;;;;;3.81;83.56;96930.38;5032319;28;20270;-72
2022/02/10 07:09:28;;;;;;;1.80;1.50;;;;;;;4.05;83.29;96931.06;5038910;28;20232;-72
2022/02/10 07:12:16;;;;;;;2.47;2.07;;;;;;;4.30;82.56;96928.16;5038948;28;20212;-71
2022/02/10 07:15:04;;;;;;;4.77;1.73;;;;;;;4.60;81.43;96917.88;5038372;28;20201;-72
2022/02/10 07:48:23;;;;;;;10.07;2.67;;;;;;;5.02;80.83;96902.94;5037964;28;20227;-71
2022/02/10 07:53:51;;;;;;;26.87;4.50;;;;;;;4.94;80.17;96909.78;5037568;28;20342;-70
2022/02/10 07:59:33;;;;;;;4.87;3.07;;;;;;;5.15;79.71;96900.97;5037161;28;20256;-71
2022/02/10 08:17:59;;;;;;;9.23;3.83;;;;;;;5.40;79.28;96895.34;5036914;28;20216;-71
2022/02/10 08:55:01;;;;;;;7.50;3.13;;;;;;;6.73;75.50;96869.41;5036471;28;20293;-71
2022/02/10 08:57:38;;;;;;;2.53;2.10;;;;;;;6.60;75.32;96862.78;5035724;28;20579;-70
2022/02/10 09:00:38;;;;;;;5.33;2.70;;;;;;;6.85;74.90;96864.84;5037078;28;20231;-71
2022/02/10 09:03:20;;;;;;;6.43;2.90;;;;;;;6.83;74.58;96867.59;5035559;28;20288;-70
2022/02/10 09:06:04;;;;;;;6.73;3.63;;;;;;;6.81;74.62;96868.69;5035978;28;20205;-71
2022/02/10 09:14:30;;;;;;;5.90;2.47;;;;;;;7.42;73.35;96866.41;5035626;28;20278;-71
2022/02/10 09:17:20;;;;;;;3.43;2.07;;;;;;;7.38;72.52;96865.03;5034734;28;20199;-71
2022/02/10 10:00:55;;;;;;;3.40;1.80;;;;;;;8.75;69.24;96861.25;5014195;28;20563;-70
2022/02/10 10:03:31;;;;;;;4.60;2.17;;;;;;;8.68;68.61;96866.28;5035057;28;20209;-69
2022/02/10 10:06:10;;;;;;;3.33;1.87;;;;;;;8.75;69.48;96866.50;5039618;28;20669;-70
2022/02/10 10:08:52;;;;;;;3.37;1.90;;;;;;;8.79;68.96;96859.97;5039321;28;20208;-69
2022/02/10 10:11:49;;;;;;;1.87;1.13;;;;;;;8.91;68.67;96867.47;5039562;28;20259;-70
2022/02/10 10:14:22;;;;;;;6.00;2.00;;;;;;;8.87;68.21;96862.66;5038457;28;20267;-70
2022/02/10 10:17:09;;;;;;;6.57;1.53;;;;;;;9.14;67.93;96861.56;5038872;28;20216;-70
2022/02/10 10:19:47;;;;;;;2.07;1.00;;;;;;;9.09;67.66;96865.66;5039600;28;20693;-70
2022/02/10 10:22:26;;;;;;;7.77;2.80;;;;;;;9.19;66.88;96855.88;5039469;28;20648;-70
2022/02/10 10:25:18;;;;;;;3.70;1.90;;;;;;;9.57;66.67;96847.53;5036381;28;20236;-70
2022/02/10 10:44:16;;;;;;;2.30;1.47;;;;;;;9.64;66.36;96856.47;5039013;28;20205;-69
2022/02/10 10:50:54;;;;;;;5.80;2.10;;;;;;;10.39;64.96;96821.25;4992260;28;20235;-70
2022/02/10 10:53:27;;;;;;;5.07;2.00;;;;;;;9.98;65.14;96811.59;5038632;28;20263;-70
2022/02/10 10:56:05;;;;;;;4.33;2.03;;;;;;;10.37;65.18;96817.94;5039053;28;20233;-70
2022/02/10 10:58:34;;;;;;;3.17;1.70;;;;;;;10.09;65.10;96811.28;5038224;28;20719;-70
2022/02/10 11:03:36;;;;;;;4.93;2.40;;;;;;;10.57;64.83;96816.66;5038491;28;20591;-70
2022/02/10 11:38:21;;;;;;;7.77;3.33;;;;;;;11.92;62.47;96772.44;5037891;28;20259;-70
2022/02/10 12:39:06;;;;;;;4.60;1.83;;;;;;;13.07;58.50;96704.22;5023044;28;20339;-71
2022/02/10 14:11:28;;;;;;;6.93;3.30;;;;;;;13.49;60.15;96646.13;5031700;28;20235;-70
2022/02/10 14:13:56;;;;;;;9.70;3.20;;;;;;;13.73;59.88;96653.78;5038480;28;20620;-70
2022/02/10 14:16:38;;;;;;;9.10;3.37;;;;;;;13.73;60.12;96645.81;5039338;28;20209;-70
2022/02/10 14:19:15;;;;;;;5.20;3.47;;;;;;;13.93;60.38;96638.94;5038625;28;20235;-70
2022/02/10 14:21:58;;;;;;;3.33;1.90;;;;;;;13.81;60.55;96641.25;5039079;28;20201;-70
2022/02/10 14:27:08;;;;;;;8.57;3.08;;;;;;;14.33;58.97;96641.81;5038958;28;20749;-70
2022/02/10 14:29:39;;;;;;;6.82;2.83;;;;;;;14.64;58.39;96640.47;5038901;28;20225;-71
2022/02/10 14:32:06;;;;;;;6.95;1.95;;;;;;;14.38;58.64;96644.72;5038850;28;20258;-71
2022/02/10 14:34:33;;;;;;;11.20;3.40;;;;;;;14.22;58.91;96629.06;5038272;28;20198;-71
2022/02/10 14:37:22;;;;;;;4.85;2.08;;;;;;;13.89;59.65;96641.13;5039194;28;20202;-71
2022/02/10 14:39:58;;;;;;;5.20;2.67;;;;;;;13.59;58.05;96642.22;5038925;28;21280;-70
2022/02/10 15:20:46;;;;;;;10.67;3.73;;;;;;;12.77;65.29;96670.72;5038405;28;20240;-71
2022/02/10 15:46:47;;;;;;;3.70;2.10;;;;;;;11.78;67.97;96687.84;5035114;28;20212;-71
2022/02/10 15:49:45;;;;;;;3.00;1.73;;;;;;;11.69;67.96;96702.09;5037061;28;20232;-71
2022/02/10 15:52:42;;;;;;;14.53;1.90;;;;;;;11.62;66.69;96695.84;5036885;28;20581;-70
2022/02/10 15:55:46;;;;;;;4.13;1.40;;;;;;;11.40;66.97;96696.56;5037313;28;20205;-70
2022/02/10 16:17:34;;;;;;;1.80;1.43;;;;;;;11.11;60.90;96714.81;5027001;28;20208;-70
2022/02/10 16:20:07;;;;;;;1.93;1.00;;;;;;;11.04;60.79;96716.47;5036897;28;20233;-70
2022/02/10 16:22:37;;;;;;;2.57;1.17;;;;;;;10.96;61.37;96718.31;5036553;28;20620;-70
2022/02/10 16:25:09;;;;;;;4.17;1.47;;;;;;;11.07;61.27;96705.59;5033957;28;20255;-70
2022/02/10 16:27:37;;;;;;;1.63;1.30;;;;;;;10.94;61.62;96718.44;5036714;28;20560;-71
2022/02/10 16:30:12;;;;;;;1.40;0.83;;;;;;;10.92;62.40;96705.59;5036807;28;20732;-70
2022/02/10 16:32:40;;;;;;;3.70;1.60;;;;;;;10.91;62.42;96709.22;5036100;28;20609;-70
2022/02/10 16:35:08;;;;;;;3.03;1.43;;;;;;;10.99;62.88;96708.22;5036740;28;20219;-70
2022/02/10 16:37:35;;;;;;;4.90;1.60;;;;;;;10.86;63.06;96717.66;5036264;28;20209;-70
2022/02/10 16:40:03;;;;;;;7.57;2.40;;;;;;;10.62;69.93;96717.66;5036522;28;20232;-71
2022/02/10 16:42:31;;;;;;;5.17;2.80;;;;;;;10.25;75.04;96710.44;5035884;28;20696;-71
2022/02/10 16:44:57;;;;;;;5.13;2.70;;;;;;;9.97;76.35;96722.25;5036415;28;20700;-71
2022/02/10 16:47:24;;;;;;;8.80;3.47;;;;;;;10.04;76.08;96718.81;5036412;28;20212;-70
2022/02/10 16:49:53;;;;;;;8.67;2.27;;;;;;;9.87;75.27;96717.06;5036118;28;20221;-70
2022/02/10 16:52:23;;;;;;;3.50;2.23;;;;;;;10.08;73.74;96706.97;5035806;28;20553;-70
2022/02/10 16:54:52;;;;;;;6.93;2.93;;;;;;;10.07;74.77;96705.31;5036809;28;20725;-70
2022/02/10 16:57:32;;;;;;;8.47;3.20;;;;;;;10.10;74.73;96702.34;5036495;28;20308;-71
2022/02/10 17:00:10;;;;;;;11.00;3.97;;;;;;;10.00;75.84;96701.66;5037068;28;20235;-71
2022/02/10 17:03:03;;;;;;;6.73;3.13;;;;;;;9.76;76.17;96706.03;5036146;28;20208;-71
2022/02/10 17:05:46;;;;;;;8.20;3.30;;;;;;;9.58;77.08;96700.03;5036642;28;20201;-71
2022/02/10 17:14:14;;;;;;;4.47;2.53;;;;;;;9.15;79.31;96715.16;5035846;28;20202;-70
2022/02/10 17:19:32;;;;;;;4.87;2.60;;;;;;;9.01;80.94;96717.53;5036357;28;20343;-71
2022/02/10 17:27:31;;;;;;;11.60;3.57;;;;;;;9.06;80.61;96723.16;5035478;28;20572;-70
2022/02/10 17:30:25;;;;;;;6.87;3.33;;;;;;;8.98;81.17;96736.25;5035981;28;20225;-70
2022/02/10 17:33:05;;;;;;;9.03;4.63;;;;;;;9.00;82.55;96737.75;5035455;28;20205;-71
2022/02/10 17:36:03;;;;;;;6.30;2.93;;;;;;;8.89;82.35;96745.06;5036011;28;20201;-71
2022/02/10 17:41:34;;;;;;;9.43;3.40;;;;;;;8.91;82.12;96740.47;5036615;28;21269;-70
2022/02/10 17:44:14;;;;;;;5.00;3.00;;;;;;;8.71;82.58;96750.38;5035717;28;20310;-71
2022/02/10 17:46:53;;;;;;;8.77;3.73;;;;;;;8.59;83.71;96750.75;5036564;28;20258;-71
2022/02/10 17:52:12;;;;;;;10.43;3.90;;;;;;;8.81;83.18;96745.84;5035754;28;20586;-71
2022/02/10 17:54:39;;;;;;;6.30;2.60;;;;;;;8.58;83.62;96752.56;5036629;28;20263;-71
2022/02/10 17:57:05;;;;;;;4.27;2.57;;;;;;;8.73;82.97;96751.06;5036373;28;20563;-71
2022/02/10 17:59:33;;;;;;;9.13;3.77;;;;;;;8.56;83.71;96751.88;5035369;28;20225;-71
2022/02/10 18:02:00;;;;;;;6.13;3.17;;;;;;;8.48;84.72;96749.19;5036090;28;20975;-71
2022/02/10 18:04:29;;;;;;;6.37;3.50;;;;;;;8.73;84.39;96753.69;5035451;28;20206;-71
2022/02/10 18:06:57;;;;;;;5.80;2.80;;;;;;;8.36;85.80;96764.53;5035996;28;20201;-71
2022/02/10 18:09:58;;;;;;;7.63;2.57;;;;;;;8.52;85.28;96771.56;5035673;28;20725;-71
2022/02/10 18:15:13;;;;;;;5.77;2.90;;;;;;;8.68;83.42;96779.59;5038482;28;20862;-71
2022/02/10 18:17:44;;;;;;;6.50;2.87;;;;;;;8.55;83.55;96787.03;5036296;28;20213;-70
2022/02/10 18:20:16;;;;;;;7.53;3.63;;;;;;;8.78;83.14;96782.94;5035437;28;20261;-71
2022/02/10 18:22:59;;;;;;;4.13;2.87;;;;;;;8.55;83.59;96788.81;5035139;28;20209;-70
2022/02/10 18:28:25;;;;;;;5.40;2.97;;;;;;;8.71;83.34;96784.53;5037256;28;20575;-70
2022/02/10 19:09:23;;;;;;;6.87;3.10;;;;;;;8.91;80.13;96787.78;5041913;28;20228;-70
2022/02/10 19:11:57;;;;;;;6.53;2.87;;;;;;;8.49;79.38;96784.19;5041726;28;20225;-70
2022/02/10 19:14:24;;;;;;;3.90;2.07;;;;;;;8.59;79.45;96783.13;5040887;28;20209;-70
2022/02/10 19:16:51;;;;;;;6.63;1.93;;;;;;;8.68;79.19;96781.38;5041867;28;20680;-70
2022/02/10 19:19:17;;;;;;;6.40;2.80;;;;;;;8.67;78.67;96782.38;5042413;28;20360;-70
2022/02/10 19:21:44;;;;;;;14.33;3.77;;;;;;;8.68;77.51;96782.22;5043551;28;20219;-70
2022/02/10 19:24:12;;;;;;;5.93;2.57;;;;;;;8.81;77.48;96782.63;5041180;28;20786;-70
2022/02/10 19:26:39;;;;;;;3.30;2.00;;;;;;;8.71;77.00;96787.16;5043563;28;21569;-70
2022/02/10 19:29:06;;;;;;;32.83;13.70;;;;;;;8.65;75.99;96784.31;5043221;28;20225;-70
2022/02/10 19:31:35;;;;;;;5.87;2.70;;;;;;;8.75;75.62;96788.50;5045241;28;20205;-70
2022/02/10 19:34:02;;;;;;;4.73;1.90;;;;;;;8.64;75.32;96794.00;5040894;28;20205;-70
2022/02/10 19:36:29;;;;;;;11.00;2.27;;;;;;;8.76;75.27;96795.41;5040265;28;21065;-70
2022/02/10 19:38:56;;;;;;;8.90;3.22;;;;;;;8.72;75.55;96791.44;5039531;28;20452;-70
2022/02/10 19:41:30;;;;;;;6.13;3.37;;;;;;;8.94;74.87;96790.13;5040613;28;21071;-70
2022/02/10 19:43:56;;;;;;;3.43;1.70;;;;;;;8.72;74.53;96799.31;5040417;28;20233;-70
2022/02/10 19:46:23;;;;;;;4.80;1.97;;;;;;;8.70;74.94;96800.44;5040221;28;20550;-70
2022/02/10 19:48:49;;;;;;;4.67;1.80;;;;;;;8.73;74.88;96790.47;5040938;28;20229;-70
2022/02/10 19:51:16;;;;;;;2.90;1.80;;;;;;;8.70;74.49;96788.13;5039921;28;20696;-70
2022/02/10 19:53:42;;;;;;;4.80;2.47;;;;;;;8.67;74.51;96785.81;5040307;28;20194;-70
2022/02/10 19:56:09;;;;;;;3.90;1.90;;;;;;;8.81;74.07;96792.34;5040376;28;20692;-70
2022/02/10 19:58:37;;;;;;;3.93;2.13;;;;;;;9.01;74.00;96789.31;5039296;28;20568;-70
2022/02/10 20:01:04;;;;;;;4.20;1.73;;;;;;;8.70;74.14;96800.44;5038839;28;20236;-70
2022/02/10 20:03:33;;;;;;;5.20;2.30;;;;;;;8.87;74.03;96796.97;5038962;28;20678;-70
2022/02/10 20:06:02;;;;;;;5.83;2.67;;;;;;;8.74;74.93;96788.66;5038614;28;20962;-70
2022/02/10 20:08:29;;;;;;;4.57;2.70;;;;;;;8.89;73.87;96792.38;5040046;28;20455;-70
2022/02/10 20:10:56;;;;;;;4.67;2.53;;;;;;;8.95;73.95;96789.13;5039231;28;20193;-70
2022/02/10 20:13:25;;;;;;;4.33;2.33;;;;;;;8.95;73.79;96795.22;5039191;28;20201;-70
2022/02/10 20:15:53;;;;;;;6.17;2.47;;;;;;;8.84;74.99;96798.09;5038899;28;20684;-70
2022/02/10 20:18:20;;;;;;;12.67;5.40;;;;;;;8.57;75.42;96798.19;5039981;28;20300;-70
2022/02/10 20:20:53;;;;;;;8.33;3.57;;;;;;;8.65;75.73;96790.38;5039338;28;20689;-70
2022/02/10 20:23:20;;;;;;;16.63;5.33;;;;;;;8.39;76.14;96790.47;5041541;28;20209;-70
2022/02/10 20:25:47;;;;;;;13.20;4.70;;;;;;;8.34;76.30;96790.94;5037695;28;20593;-70
2022/02/10 20:28:14;;;;;;;7.93;3.80;;;;;;;8.30;76.38;96791.38;5040817;28;20201;-70
2022/02/10 20:30:41;;;;;;;16.53;5.37;;;;;;;8.48;75.95;96775.47;5039850;28;20677;-70
2022/02/10 20:33:09;;;;;;;36.60;8.73;;;;;;;8.53;76.06;96772.41;5039760;28;20201;-70
2022/02/10 20:35:37;;;;;;;16.33;5.13;;;;;;;8.39;76.31;96769.47;5038973;28;20201;-70
2022/02/10 20:38:04;;;;;;;9.93;4.13;;;;;;;8.27;76.60;96771.47;5039169;28;20244;-70
2022/02/10 20:40:34;;;;;;;3.77;2.53;;;;;;;8.25;76.88;96754.22;5038769;28;20235;-70
2022/02/10 20:43:06;;;;;;;5.37;2.53;;;;;;;8.38;76.51;96752.06;5037732;28;20321;-69
2022/02/10 20:45:34;;;;;;;7.80;2.30;;;;;;;8.36;76.60;96746.13;5036712;28;20209;-70
2022/02/10 20:48:01;;;;;;;5.90;2.90;;;;;;;8.39;76.70;96753.69;5036297;28;20209;-70
2022/02/10 20:50:29;;;;;;;4.30;2.40;;;;;;;8.48;76.67;96750.16;5036421;28;21171;-70
2022/02/10 20:52:57;;;;;;;8.17;2.73;;;;;;;8.25;76.64;96757.69;5035009;28;20200;-70
2022/02/10 20:55:24;;;;;;;6.23;3.13;;;;;;;8.30;76.44;96759.84;5035766;28;20205;-70
2022/02/10 20:57:50;;;;;;;10.23;4.33;;;;;;;8.29;76.72;96760.88;5037271;28;20194;-70
2022/02/10 21:00:18;;;;;;;13.37;4.53;;;;;;;8.31;76.80;96751.00;5036449;28;20233;-70
2022/02/10 21:02:47;;;;;;;11.67;5.27;;;;;;;8.27;77.50;96749.66;5037618;28;20533;-70
2022/02/10 21:05:28;;;;;;;8.70;3.80;;;;;;;8.18;77.77;96750.56;5036675;28;20205;-70
2022/02/10 21:08:07;;;;;;;15.23;3.83;;;;;;;8.33;77.59;96738.56;5037269;28;20255;-70
2022/02/10 21:10:36;;;;;;;9.47;2.77;;;;;;;8.29;77.24;96735.41;5036088;28;20264;-70
2022/02/10 21:13:03;;;;;;;4.33;2.47;;;;;;;8.31;76.90;96735.25;5035352;28;21060;-70
2022/02/10 21:15:37;;;;;;;9.47;3.17;;;;;;;8.22;76.59;96734.38;5035917;28;20241;-70
2022/02/10 21:18:05;;;;;;;8.53;3.00;;;;;;;8.12;76.65;96727.50;5035721;28;20224;-70
2022/02/10 21:20:34;;;;;;;4.10;3.33;;;;;;;8.07;77.39;96727.97;5036044;28;20319;-70
2022/02/10 21:23:12;;;;;;;8.00;4.10;;;;;;;8.18;77.23;96729.56;5034093;28;20684;-70
2022/02/10 21:25:39;;;;;;;7.77;3.27;;;;;;;8.03;77.92;96728.41;5035212;28;20217;-70
2022/02/10 21:28:15;;;;;;;11.03;4.03;;;;;;;7.94;78.27;96735.41;5037528;28;20209;-70
2022/02/10 21:30:42;;;;;;;5.37;2.70;;;;;;;7.88;78.22;96737.78;5037506;28;20217;-70
2022/02/10 21:33:15;;;;;;;5.17;2.97;;;;;;;7.95;78.12;96720.47;5035986;28;20200;-70
2022/02/10 21:36:04;;;;;;;4.87;2.13;;;;;;;7.99;77.53;96740.19;5037002;28;20211;-70
2022/02/10 21:38:33;;;;;;;4.00;2.67;;;;;;;8.07;77.81;96732.38;5036320;28;21144;-70
2022/02/10 21:41:29;;;;;;;9.37;2.90;;;;;;;7.96;77.34;96719.50;5036541;28;20290;-70
2022/02/10 21:55:22;;;;;;;4.63;2.50;;;;;;;7.68;79.22;96714.47;5037921;28;21164;-70
2022/02/10 21:58:35;;;;;;;4.13;2.13;;;;;;;7.49;79.40;96696.22;5037782;28;20285;-70
2022/02/10 22:06:21;;;;;;;2.07;1.30;;;;;;;7.44;80.44;96696.63;5040095;28;20236;-70
2022/02/10 22:09:09;;;;;;;2.80;1.57;;;;;;;7.35;80.94;96692.28;5040697;28;20221;-70
2022/02/10 22:11:58;;;;;;;6.50;2.13;;;;;;;7.67;80.42;96692.63;5041146;28;20284;-70
2022/02/10 22:17:28;;;;;;;3.73;2.07;;;;;;;7.74;79.16;96692.84;5039444;28;20220;-70
2022/02/10 22:20:05;;;;;;;5.23;2.20;;;;;;;7.76;79.19;96686.50;5039787;28;20308;-70
2022/02/10 22:22:36;;;;;;;3.30;1.87;;;;;;;7.93;78.87;96688.31;5039776;28;20609;-70
2022/02/10 22:25:06;;;;;;;5.70;2.07;;;;;;;7.99;78.31;96682.44;5037629;28;20297;-70
2022/02/10 22:27:38;;;;;;;5.30;2.17;;;;;;;8.18;78.40;96677.06;5040110;28;20198;-70
2022/02/10 22:30:15;;;;;;;2.57;1.50;;;;;;;8.16;78.43;96665.88;5039991;28;20306;-70
2022/02/10 22:32:48;;;;;;;3.10;2.00;;;;;;;8.17;77.66;96657.88;5039000;28;20201;-70
2022/02/10 22:35:15;;;;;;;5.10;2.93;;;;;;;8.14;78.26;96660.78;5039875;28;20209;-70
2022/02/10 22:37:42;;;;;;;5.50;1.77;;;;;;;8.23;78.02;96651.19;5040053;28;20259;-70
2022/02/10 22:40:24;;;;;;;3.73;2.10;;;;;;;8.19;77.54;96647.22;5040194;28;20232;-70
2022/02/10 22:42:52;;;;;;;4.97;2.00;;;;;;;8.36;77.33;96647.16;5039530;28;20204;-70
2022/02/10 22:45:20;;;;;;;3.63;1.70;;;;;;;8.35;77.22;96649.97;5040041;28;20209;-70
2022/02/10 22:47:46;;;;;;;5.93;2.30;;;;;;;8.33;76.94;96644.06;5039869;28;20201;-70
2022/02/10 22:50:13;;;;;;;8.10;2.43;;;;;;;8.31;76.66;96646.00;5040266;28;20583;-70
2022/02/10 22:52:39;;;;;;;4.80;2.53;;;;;;;8.16;77.55;96642.25;5038937;28;20212;-70
2022/02/10 22:55:06;;;;;;;5.40;2.43;;;;;;;8.29;76.99;96642.72;5040421;28;20209;-70
2022/02/10 22:57:33;;;;;;;4.63;2.03;;;;;;;8.32;77.06;96645.03;5040504;28;21055;-70
2022/02/10 23:00:05;;;;;;;4.00;2.07;;;;;;;8.38;77.21;96642.59;5040286;28;20224;-70
2022/02/10 23:02:32;;;;;;;6.93;2.37;;;;;;;8.24;77.24;96644.97;5039447;28;20201;-70
2022/02/10 23:04:59;;;;;;;12.20;2.43;;;;;;;8.21;78.19;96643.47;5039398;28;20207;-70
2022/02/10 23:07:26;;;;;;;5.60;2.70;;;;;;;8.10;78.68;96637.59;5039899;28;20204;-70
2022/02/10 23:10:02;;;;;;;3.53;2.23;;;;;;;7.93;79.38;96635.84;5040317;28;20326;-70
2022/02/10 23:12:29;;;;;;;4.50;1.87;;;;;;;8.13;78.60;96632.03;5038950;28;20205;-70
2022/02/10 23:14:56;;;;;;;8.60;2.20;;;;;;;8.18;78.86;96629.81;5040257;28;20207;-70
2022/02/10 23:17:24;;;;;;;4.73;1.90;;;;;;;8.25;79.22;96636.94;5040193;28;20209;-70
2022/02/10 23:19:50;;;;;;;8.20;1.47;;;;;;;7.97;79.39;96642.44;5039686;28;20217;-70
2022/02/10 23:22:17;;;;;;;4.97;2.03;;;;;;;7.92;79.86;96642.06;5039585;28;20574;-70
2022/02/10 23:24:43;;;;;;;1.93;1.63;;;;;;;8.01;79.84;96647.22;5037851;28;20204;-70
2022/02/10 23:27:10;;;;;;;3.50;1.90;;;;;;;8.03;80.05;96640.03;5039752;28;20687;-70
2022/02/10 23:29:36;;;;;;;4.40;1.67;;;;;;;8.04;80.18;96636.44;5040112;28;20317;-70
2022/02/10 23:32:04;;;;;;;3.90;2.00;;;;;;;8.03;80.36;96631.31;5040603;28;20205;-70
2022/02/10 23:34:32;;;;;;;4.70;2.47;;;;;;;8.20;80.17;96633.13;5039999;28;20209;-70
2022/02/10 23:36:58;;;;;;;2.93;1.80;;;;;;;8.00;80.03;96627.19;5040038;28;20209;-70
2022/02/10 23:39:29;;;;;;;2.83;1.80;;;;;;;8.16;80.05;96629.13;5040309;28;20225;-70
2022/02/10 23:42:07;;;;;;;3.47;1.47;;;;;;;8.05;79.33;96632.00;5040866;28;20228;-70
2022/02/10 23:44:38;;;;;;;4.27;1.70;;;;;;;8.21;79.58;96626.88;5040916;28;20313;-70
2022/02/10 23:47:07;;;;;;;3.40;1.67;;;;;;;8.29;78.38;96622.53;5041617;28;20201;-70
2022/02/10 23:49:37;;;;;;;3.63;2.00;;;;;;;8.43;78.33;96615.91;5041133;28;20264;-70
2022/02/10 23:52:07;;;;;;;4.57;2.30;;;;;;;8.40;77.53;96608.31;5040646;28;20226;-70
2022/02/10 23:54:35;;;;;;;4.13;2.03;;;;;;;8.40;78.01;96603.06;5039877;28;20613;-70
2022/02/10 23:57:10;;;;;;;4.80;2.10;;;;;;;8.24;78.09;96593.28;5040022;28;20294;-70
2022/02/10 23:59:49;;;;;;;4.17;1.87;;;;;;;8.30;78.30;96600.56;5040531;28;20225;-70
